createdAt,value
2023-11-04T00:00:10.147Z,97877.16
2023-11-04T00:05:11.842Z,97879.25
2023-11-04T00:10:13.517Z,97885.84
2023-11-04T00:15:15.275Z,97882.19
2023-11-04T00:20:16.876Z,97897.31
2023-11-04T00:25:18.502Z,97912.97
2023-11-04T00:30:20.153Z,97919.59
2023-11-04T00:35:21.725Z,97911.81
2023-11-04T00:40:23.281Z,97916.03
2023-11-04T00:45:24.994Z,97919.66
2023-11-04T00:50:27.853Z,97927.69
2023-11-04T00:55:29.773Z,97925.41
2023-11-04T01:00:31.553Z,97923.78
2023-11-04T01:05:34.190Z,97914.06
2023-11-04T01:10:36.082Z,97911.50
2023-11-04T01:15:37.672Z,97918.16
2023-11-04T01:20:39.249Z,97925.00
2023-11-04T01:25:40.872Z,97931.66
2023-11-04T01:30:42.498Z,97923.19
2023-11-04T01:35:44.386Z,97929.34
2023-11-04T01:40:53.062Z,97943.75
2023-11-04T01:46:15.360Z,97938.41
2023-11-04T01:51:17.236Z,97933.63
2023-11-04T01:56:24.479Z,97945.03
2023-11-04T02:01:27.012Z,97947.13
2023-11-04T02:06:28.730Z,97938.31
2023-11-04T02:11:30.706Z,97928.81
2023-11-04T02:16:32.251Z,97920.97
2023-11-04T02:21:34.422Z,97924.34
2023-11-04T02:26:36.401Z,97931.41
2023-11-04T02:31:38.156Z,97930.06
2023-11-04T02:36:39.936Z,97927.03
2023-11-04T02:41:41.469Z,97928.78
2023-11-04T02:46:43.091Z,97946.44
2023-11-04T02:51:44.776Z,97947.47
2023-11-04T02:56:46.649Z,97965.44
2023-11-04T03:01:48.315Z,97975.88
2023-11-04T03:06:49.958Z,97986.06
2023-11-04T03:11:53.369Z,97980.50
2023-11-04T03:16:55.763Z,97978.88
2023-11-04T03:21:57.924Z,97974.25
2023-11-04T03:26:59.711Z,97980.97
2023-11-04T03:32:01.294Z,97994.09
2023-11-04T03:37:03.882Z,97997.34
2023-11-04T03:42:05.524Z,97999.44
2023-11-04T03:47:07.926Z,97991.88
2023-11-04T03:52:10.575Z,97991.00
2023-11-04T03:57:12.138Z,97997.38
2023-11-04T04:02:14.868Z,97989.84
2023-11-04T04:07:16.438Z,97994.44
2023-11-04T04:12:17.998Z,98004.16
2023-11-04T04:17:19.610Z,98006.50
2023-11-04T04:22:21.187Z,97999.53
2023-11-04T04:27:22.872Z,97997.09
2023-11-04T04:32:24.522Z,97999.84
2023-11-04T04:37:26.667Z,98005.28
2023-11-04T04:42:28.247Z,98004.69
2023-11-04T04:47:29.808Z,98011.94
2023-11-04T04:52:31.823Z,98009.94
2023-11-04T04:57:33.707Z,98003.66
2023-11-04T05:02:35.507Z,98016.88
2023-11-04T05:07:37.138Z,98032.22
2023-11-04T05:12:39.419Z,98035.34
2023-11-04T05:17:41.004Z,98025.53
2023-11-04T05:22:42.560Z,98040.91
2023-11-04T08:18:50.629Z,98025.72
2023-11-04T08:23:52.307Z,98018.44
2023-11-04T08:28:53.932Z,98020.31
2023-11-04T08:33:59.371Z,98019.09
2023-11-04T08:39:01.396Z,98010.25
2023-11-04T08:44:03.049Z,98006.09
2023-11-04T08:49:06.425Z,98014.16
2023-11-04T08:54:11.155Z,97998.63
2023-11-04T08:59:12.866Z,97996.59
2023-11-04T09:04:20.277Z,97997.84
2023-11-04T09:09:27.844Z,98002.91
2023-11-04T09:14:29.455Z,97999.56
2023-11-04T09:19:31.412Z,97994.19
2023-11-04T09:24:34.354Z,97977.47
2023-11-04T09:29:36.059Z,97977.19
2023-11-04T09:34:37.992Z,97971.44
2023-11-04T09:39:39.663Z,97965.91
2023-11-04T09:44:41.743Z,97954.09
2023-11-04T09:49:44.651Z,97943.03
2023-11-04T09:54:49.223Z,97931.97
2023-11-04T09:59:51.155Z,97926.09
2023-11-04T10:04:54.286Z,97910.78
2023-11-04T10:09:56.330Z,97893.03
2023-11-04T10:14:57.997Z,97893.84
2023-11-04T10:19:59.720Z,97885.22
2023-11-04T10:25:02.274Z,97873.59
2023-11-04T10:30:04.702Z,97863.59
2023-11-04T10:35:13.017Z,97852.88
2023-11-04T10:40:15.417Z,97836.22
2023-11-04T10:45:21.687Z,97836.50
2023-11-04T10:50:29.485Z,97836.28
2023-11-04T10:55:40.236Z,97819.69
2023-11-04T11:00:42.647Z,97817.56
2023-11-04T11:05:44.226Z,97809.38
2023-11-04T11:10:58.075Z,97808.72
2023-11-04T11:16:00.109Z,97799.09
2023-11-04T11:21:11.254Z,97796.94
2023-11-04T11:26:13.313Z,97785.63
2023-11-04T11:31:15.339Z,97774.72
2023-11-04T11:36:17.680Z,97758.59
2023-11-04T11:41:19.511Z,97768.50
2023-11-04T11:46:21.257Z,97757.75
2023-11-04T11:51:23.315Z,97747.34
2023-11-04T11:56:25.001Z,97750.44
2023-11-04T12:01:26.795Z,97735.25
2023-11-04T12:06:34.875Z,97740.16
2023-11-04T12:11:37.339Z,97722.31
2023-11-04T12:16:39.170Z,97711.84
2023-11-04T12:21:41.073Z,97714.47
2023-11-04T12:26:42.879Z,97712.03
2023-11-04T12:31:44.627Z,97694.03
2023-11-04T12:36:46.256Z,97688.72
2023-11-04T12:41:48.811Z,97663.84
2023-11-04T12:46:51.466Z,97670.53
2023-11-04T12:51:53.113Z,97674.50
2023-11-04T12:56:54.730Z,97648.91
2023-11-04T13:01:56.366Z,97635.22
2023-11-04T13:06:57.964Z,97644.81
2023-11-04T13:12:00.189Z,97639.38
2023-11-04T13:17:03.226Z,97634.28
2023-11-04T13:22:04.864Z,97640.50
2023-11-04T13:27:06.475Z,97621.91
2023-11-04T13:32:08.633Z,97610.13
2023-11-04T13:37:10.976Z,97602.44
2023-11-04T13:42:15.918Z,97600.94
2023-11-04T13:47:19.422Z,97598.28
2023-11-04T13:52:21.225Z,97587.41
2023-11-04T13:57:23.053Z,97587.94
2023-11-04T14:02:28.254Z,97588.00
2023-11-04T14:07:30.064Z,97580.00
2023-11-04T14:12:31.595Z,97579.25
2023-11-04T14:17:33.217Z,97584.16
2023-11-04T14:22:35.778Z,97572.09
2023-11-04T14:27:40.866Z,97560.88
2023-11-04T14:32:42.481Z,97563.84
2023-11-04T14:37:44.285Z,97549.38
2023-11-04T14:42:46.887Z,97550.19
2023-11-04T14:47:48.439Z,97547.81
2023-11-04T14:52:50.068Z,97529.84
2023-11-04T14:57:51.917Z,97531.50
2023-11-04T15:02:53.709Z,97524.56
2023-11-04T15:07:55.225Z,97520.88
2023-11-04T15:12:56.880Z,97513.38
2023-11-04T15:17:58.517Z,97507.50
2023-11-04T15:23:00.093Z,97485.78
2023-11-04T15:28:01.971Z,97477.50
2023-11-04T15:33:04.655Z,97478.31
2023-11-04T15:38:06.205Z,97472.16
2023-11-04T15:43:10.176Z,97477.56
2023-11-04T15:48:12.040Z,97474.63
2023-11-04T15:53:14.055Z,97456.38
2023-11-04T15:58:15.760Z,97450.75
2023-11-04T16:03:17.550Z,97439.72
2023-11-04T16:08:19.279Z,97432.75
2023-11-04T16:13:21.183Z,97419.88
2023-11-04T16:18:24.127Z,97425.53
2023-11-04T16:23:25.937Z,97431.94
2023-11-04T16:28:27.622Z,97412.88
2023-11-04T16:33:29.377Z,97416.09
2023-11-04T16:38:31.439Z,97411.53
2023-11-04T16:43:33.077Z,97401.59
2023-11-04T16:48:34.679Z,97387.69
2023-11-04T16:53:36.234Z,97378.81
2023-11-04T16:58:37.966Z,97394.09
2023-11-04T17:03:39.807Z,97398.41
2023-11-04T17:08:41.514Z,97382.03
2023-11-04T17:13:44.513Z,97369.72
2023-11-04T17:18:46.567Z,97361.97
2023-11-04T17:23:48.777Z,97337.84
2023-11-04T17:28:50.755Z,97331.69
2023-11-04T17:33:52.696Z,97314.56
2023-11-04T17:38:54.927Z,97298.50
2023-11-04T17:43:57.781Z,97308.09
2023-11-04T17:49:00.691Z,97310.53
2023-11-04T17:54:03.991Z,97340.47
2023-11-04T17:59:06.784Z,97344.47
2023-11-04T18:04:09.974Z,97346.09
2023-11-04T18:09:14.077Z,97341.00
2023-11-04T18:14:17.290Z,97328.41
2023-11-04T18:19:21.157Z,97329.44
2023-11-04T18:24:24.288Z,97330.50
2023-11-04T18:29:27.625Z,97341.47
2023-11-04T18:34:31.020Z,97323.25
2023-11-04T18:39:35.858Z,97306.66
2023-11-04T18:44:39.097Z,97294.59
2023-11-04T18:49:43.789Z,97296.16
2023-11-04T18:54:51.241Z,97290.28
2023-11-04T18:59:54.751Z,97290.53
2023-11-04T19:04:58.338Z,97297.75
2023-11-04T19:10:03.966Z,97298.00
2023-11-04T19:15:07.726Z,97307.59
2023-11-04T19:20:12.428Z,97299.28
2023-11-04T19:25:15.949Z,97292.59
2023-11-04T19:30:19.582Z,97281.63
2023-11-04T19:35:23.820Z,97278.41
2023-11-04T19:40:26.827Z,97283.44
2023-11-04T19:45:29.863Z,97276.78
2023-11-04T19:50:33.123Z,97275.69
2023-11-04T19:55:36.349Z,97248.97
2023-11-04T20:00:39.582Z,97241.25
2023-11-04T20:05:42.737Z,97246.34
2023-11-04T20:10:45.598Z,97253.84
2023-11-04T20:15:48.144Z,97237.81
2023-11-04T20:20:50.597Z,97219.09
2023-11-04T20:25:52.774Z,97219.13
2023-11-04T20:30:55.137Z,97206.84
2023-11-04T20:35:57.518Z,97168.34
2023-11-04T20:40:59.707Z,97173.16
2023-11-04T20:46:02.035Z,97205.75
2023-11-04T20:51:05.020Z,97256.81
2023-11-04T20:56:07.845Z,97260.84
2023-11-04T21:01:09.399Z,97221.00
2023-11-04T21:06:11.055Z,97241.09
2023-11-04T21:11:12.873Z,97242.41
2023-11-04T21:16:15.098Z,97255.00
2023-11-04T21:21:18.977Z,97248.84
2023-11-04T21:26:21.019Z,97249.63
2023-11-04T21:31:22.856Z,97265.44
2023-11-04T21:36:24.964Z,97268.38
2023-11-04T21:41:26.637Z,97270.25
2023-11-04T21:46:28.946Z,97242.97
2023-11-04T21:51:30.874Z,97252.31
2023-11-04T21:56:32.507Z,97253.38
2023-11-04T22:01:34.123Z,97255.00
2023-11-04T22:06:37.487Z,97251.53
2023-11-04T22:11:39.448Z,97241.09
2023-11-04T22:16:41.013Z,97238.16
2023-11-04T22:21:42.558Z,97221.28
2023-11-04T22:26:46.365Z,97212.97
2023-11-04T22:31:47.970Z,97223.38
2023-11-04T22:36:49.842Z,97237.22
2023-11-04T22:41:51.887Z,97250.91
2023-11-04T22:46:53.842Z,97246.88
2023-11-04T22:51:55.548Z,97235.38
2023-11-04T22:56:57.260Z,97220.59
2023-11-04T23:01:58.864Z,97239.03
2023-11-04T23:07:00.592Z,97244.09
2023-11-04T23:12:02.249Z,97213.63
2023-11-04T23:17:04.004Z,97223.56
2023-11-04T23:22:05.659Z,97208.31
2023-11-04T23:27:07.246Z,97193.94
2023-11-04T23:32:08.921Z,97192.03
2023-11-04T23:37:10.611Z,97220.13
2023-11-04T23:42:14.296Z,97210.50
2023-11-04T23:47:15.906Z,97198.19
2023-11-04T23:52:17.685Z,97192.06
2023-11-04T23:57:20.015Z,97174.97
